createdAt,value
2022-12-11T00:00:53.471Z,92.35
2022-12-11T00:03:21.261Z,92.40
2022-12-11T00:05:48.736Z,92.53
2022-12-11T00:08:16.263Z,92.71
2022-12-11T00:10:49.654Z,92.71
2022-12-11T00:13:17.139Z,92.70
2022-12-11T00:15:44.853Z,92.72
2022-12-11T00:18:15.178Z,92.73
2022-12-11T00:20:43.039Z,92.62
2022-12-11T00:23:13.919Z,92.86
2022-12-11T00:25:45.819Z,92.72
2022-12-11T00:28:17.062Z,92.74
2022-12-11T00:30:45.045Z,92.71
2022-12-11T00:33:14.108Z,92.80
2022-12-11T00:35:44.558Z,92.84
2022-12-11T00:38:21.071Z,92.50
2022-12-11T00:40:49.257Z,92.53
2022-12-11T00:43:17.582Z,92.61
2022-12-11T00:45:47.312Z,92.60
2022-12-11T00:48:15.228Z,92.71
2022-12-11T00:50:43.045Z,92.66
2022-12-11T00:53:10.643Z,92.61
2022-12-11T00:55:40.135Z,92.53
2022-12-11T00:58:08.471Z,92.51
2022-12-11T01:00:36.046Z,92.67
2022-12-11T01:03:04.571Z,92.69
2022-12-11T01:05:32.593Z,92.70
2022-12-11T01:08:00.505Z,92.74
2022-12-11T01:10:28.713Z,92.62
2022-12-11T01:13:05.528Z,92.67
2022-12-11T01:15:41.579Z,92.86
2022-12-11T01:18:11.638Z,93.13
2022-12-11T01:20:42.788Z,93.02
2022-12-11T01:23:13.167Z,93.03
2022-12-11T01:25:42.021Z,93.06
2022-12-11T01:28:10.207Z,93.17
2022-12-11T01:30:40.538Z,93.09
2022-12-11T01:33:08.338Z,92.98
2022-12-11T01:35:36.917Z,92.91
2022-12-11T01:38:04.427Z,92.97
2022-12-11T01:40:32.181Z,93.21
2022-12-11T01:42:59.759Z,93.10
2022-12-11T01:45:29.902Z,93.08
2022-12-11T01:48:05.468Z,93.09
2022-12-11T01:50:37.385Z,93.20
2022-12-11T01:53:10.074Z,93.30
2022-12-11T01:55:39.402Z,93.24
2022-12-11T01:58:08.981Z,93.31
2022-12-11T02:00:36.420Z,93.23
2022-12-11T02:03:05.091Z,93.35
2022-12-11T02:05:32.896Z,93.29
2022-12-11T02:08:03.218Z,93.31
2022-12-11T02:10:56.144Z,93.22
2022-12-11T02:13:35.034Z,92.99
2022-12-11T02:16:08.789Z,93.09
2022-12-11T02:18:44.994Z,93.03
2022-12-11T02:21:29.932Z,92.98
2022-12-11T02:24:19.097Z,93.02
2022-12-11T02:27:04.560Z,93.17
2022-12-11T02:29:44.731Z,93.14
2022-12-11T02:32:45.995Z,93.07
2022-12-11T02:35:26.092Z,93.02
2022-12-11T02:37:58.822Z,93.06
2022-12-11T02:40:31.787Z,93.11
2022-12-11T02:43:03.315Z,93.22
2022-12-11T02:45:32.570Z,93.06
2022-12-11T02:48:03.842Z,93.24
2022-12-11T02:50:34.004Z,93.27
2022-12-11T02:53:04.307Z,93.24
2022-12-11T02:55:33.752Z,93.25
2022-12-11T02:58:16.569Z,93.07
2022-12-11T03:00:45.833Z,93.38
2022-12-11T03:03:13.882Z,93.16
2022-12-11T03:05:42.744Z,93.11
2022-12-11T03:08:11.178Z,93.24
2022-12-11T03:10:38.639Z,93.26
2022-12-11T03:13:06.139Z,93.18
2022-12-11T03:15:47.394Z,93.12
2022-12-11T03:18:41.338Z,93.21
2022-12-11T03:21:17.824Z,93.17
2022-12-11T03:23:53.257Z,93.21
2022-12-11T03:26:23.621Z,93.31
2022-12-11T03:28:55.634Z,93.39
2022-12-11T03:31:32.271Z,93.20
2022-12-11T03:34:04.438Z,93.24
2022-12-11T03:36:36.358Z,93.38
2022-12-11T03:39:10.536Z,93.27
2022-12-11T03:41:40.211Z,93.22
2022-12-11T03:44:08.451Z,93.05
2022-12-11T03:46:40.092Z,93.10
2022-12-11T03:49:13.607Z,93.02
2022-12-11T03:51:42.324Z,92.97
2022-12-11T03:54:11.443Z,92.83
2022-12-11T03:56:41.082Z,92.72
2022-12-11T03:59:09.023Z,92.65
2022-12-11T04:01:36.805Z,92.60
2022-12-11T04:04:04.853Z,92.41
2022-12-11T04:06:32.331Z,92.48
2022-12-11T04:08:59.715Z,92.57
2022-12-11T04:11:36.359Z,92.48
2022-12-11T04:14:28.612Z,92.41
2022-12-11T04:16:57.134Z,92.25
2022-12-11T04:19:44.386Z,92.25
2022-12-11T04:22:32.365Z,92.34
2022-12-11T04:25:01.367Z,91.85
2022-12-11T04:27:48.240Z,92.22
2022-12-11T04:30:21.548Z,91.98
2022-12-11T04:32:52.278Z,92.14
2022-12-11T04:35:20.631Z,91.99
2022-12-11T04:37:48.833Z,91.90
2022-12-11T04:40:18.713Z,91.56
2022-12-11T04:42:46.367Z,91.35
2022-12-11T04:45:14.177Z,91.13
2022-12-11T04:47:42.283Z,90.77
2022-12-11T04:50:12.082Z,90.94
2022-12-11T04:52:39.526Z,90.12
2022-12-11T04:55:08.752Z,90.73
2022-12-11T04:57:36.459Z,90.51
2022-12-11T05:00:10.295Z,90.90
2022-12-11T05:02:39.770Z,90.44
2022-12-11T05:05:10.671Z,90.44
2022-12-11T05:07:40.128Z,90.23
2022-12-11T05:10:08.351Z,90.04
2022-12-11T05:12:35.788Z,89.87
2022-12-11T05:15:04.171Z,89.70
2022-12-11T05:17:31.578Z,89.26
2022-12-11T05:19:59.051Z,89.51
2022-12-11T05:22:26.750Z,89.56
2022-12-11T05:24:54.191Z,89.21
2022-12-11T05:27:21.803Z,89.50
2022-12-11T05:29:49.941Z,88.85
2022-12-11T05:32:18.381Z,88.53
2022-12-11T05:34:45.869Z,88.44
2022-12-11T05:37:13.562Z,88.64
2022-12-11T05:39:40.949Z,88.34
2022-12-11T05:42:08.382Z,88.04
2022-12-11T05:44:36.234Z,88.64
2022-12-11T05:47:03.646Z,88.15
2022-12-11T05:49:31.354Z,88.43
2022-12-11T05:51:59.134Z,88.84
2022-12-11T05:54:26.513Z,88.59
2022-12-11T05:56:53.914Z,88.34
2022-12-11T05:59:21.678Z,87.78
2022-12-11T06:01:49.322Z,88.66
2022-12-11T06:04:17.190Z,88.15
2022-12-11T06:06:44.630Z,87.96
2022-12-11T06:09:14.881Z,88.24
2022-12-11T06:11:42.871Z,88.07
2022-12-11T06:14:11.387Z,87.60
2022-12-11T06:16:38.906Z,87.69
2022-12-11T06:19:06.972Z,87.78
2022-12-11T06:21:34.459Z,87.81
2022-12-11T06:24:04.083Z,87.61
2022-12-11T06:26:32.682Z,87.78
2022-12-11T06:29:00.326Z,86.88
2022-12-11T06:31:27.829Z,87.50
2022-12-11T06:33:55.999Z,87.35
2022-12-11T06:36:24.984Z,87.01
2022-12-11T06:38:53.337Z,87.31
2022-12-11T06:41:21.090Z,86.87
2022-12-11T06:43:48.565Z,86.68
2022-12-11T06:46:18.154Z,86.77
2022-12-11T06:48:46.748Z,86.54
2022-12-11T06:51:16.963Z,86.31
2022-12-11T06:53:44.715Z,86.56
2022-12-11T06:56:14.706Z,86.22
2022-12-11T06:58:43.225Z,86.81
2022-12-11T07:01:22.861Z,86.02
2022-12-11T07:04:01.943Z,86.38
2022-12-11T07:06:29.694Z,86.35
2022-12-11T07:08:57.489Z,86.14
2022-12-11T07:11:25.061Z,86.14
2022-12-11T07:13:52.489Z,86.37
2022-12-11T07:16:20.400Z,86.45
2022-12-11T07:18:49.984Z,86.07
2022-12-11T07:21:18.443Z,86.04
2022-12-11T07:23:46.935Z,85.96
2022-12-11T07:26:17.514Z,85.80
2022-12-11T07:28:45.551Z,85.54
2022-12-11T07:31:20.430Z,84.97
2022-12-11T07:33:48.134Z,85.52
2022-12-11T07:36:16.335Z,85.20
2022-12-11T07:38:44.008Z,85.33
2022-12-11T07:41:13.683Z,86.19
2022-12-11T07:43:42.049Z,86.12
2022-12-11T07:46:18.540Z,85.53
2022-12-11T07:48:47.922Z,85.07
2022-12-11T07:51:16.786Z,84.81
2022-12-11T07:53:49.193Z,85.10
2022-12-11T07:56:18.454Z,85.12
2022-12-11T07:58:47.011Z,84.75
2022-12-11T08:01:18.476Z,84.07
2022-12-11T08:03:46.718Z,83.87
2022-12-11T08:06:14.450Z,84.21
2022-12-11T08:08:42.563Z,83.82
2022-12-11T08:11:14.640Z,83.60
2022-12-11T08:13:43.010Z,84.15
2022-12-11T08:16:14.238Z,84.21
2022-12-11T08:18:42.836Z,83.60
2022-12-11T08:21:20.729Z,82.87
2022-12-11T08:23:49.077Z,82.93
2022-12-11T08:26:20.266Z,92.05
2022-12-11T08:28:47.957Z,84.87
2022-12-11T08:31:16.883Z,83.15
2022-12-11T08:33:45.249Z,82.31
2022-12-11T08:36:15.637Z,81.63
2022-12-11T08:38:43.202Z,81.87
2022-12-11T08:41:20.731Z,81.90
2022-12-11T08:43:54.863Z,81.63
2022-12-11T08:46:29.028Z,80.96
2022-12-11T08:48:57.956Z,91.07
2022-12-11T08:51:27.075Z,83.58
2022-12-11T08:53:56.303Z,82.85
2022-12-11T08:56:24.822Z,82.69
2022-12-11T08:58:52.757Z,81.72
2022-12-11T09:01:26.270Z,82.41
2022-12-11T09:03:55.527Z,82.30
2022-12-11T09:06:26.363Z,82.18
2022-12-11T09:08:56.110Z,82.00
2022-12-11T09:11:26.412Z,84.08
2022-12-11T09:13:54.442Z,82.40
2022-12-11T09:16:24.493Z,81.20
2022-12-11T09:18:54.238Z,80.85
2022-12-11T09:21:27.611Z,81.05
2022-12-11T09:23:57.678Z,81.68
2022-12-11T09:26:26.826Z,81.25
2022-12-11T09:28:55.039Z,81.31
2022-12-11T09:31:28.386Z,81.63
2022-12-11T09:33:59.697Z,81.99
2022-12-11T09:36:27.775Z,81.89
2022-12-11T09:38:55.507Z,81.57
2022-12-11T09:41:29.702Z,81.18
2022-12-11T09:44:06.193Z,92.99
2022-12-11T09:46:35.964Z,97.10
2022-12-11T09:49:09.492Z,98.45
2022-12-11T09:51:42.191Z,96.57
2022-12-11T09:54:13.651Z,89.96
2022-12-11T09:57:18.271Z,78.59
2022-12-11T10:00:09.578Z,77.55
2022-12-11T10:02:46.348Z,73.40
2022-12-11T10:05:40.229Z,70.02
2022-12-11T10:08:10.778Z,62.21
2022-12-11T10:10:50.104Z,59.94
2022-12-11T10:14:02.047Z,62.07
2022-12-11T10:16:40.376Z,65.62
2022-12-11T10:19:24.891Z,67.84
2022-12-11T10:21:53.200Z,70.01
2022-12-11T10:25:09.358Z,71.42
2022-12-11T10:27:31.517Z,73.07
2022-12-11T10:30:14.641Z,74.15
2022-12-11T10:33:06.816Z,74.72
2022-12-11T10:36:04.415Z,76.11
2022-12-11T10:38:35.050Z,75.46
2022-12-11T10:41:05.625Z,75.54
2022-12-11T10:43:45.993Z,76.59
2022-12-11T10:46:21.070Z,77.59
2022-12-11T10:48:50.920Z,77.41
2022-12-11T10:51:19.370Z,77.25
2022-12-11T10:53:57.127Z,77.11
2022-12-11T10:56:29.792Z,77.09
2022-12-11T10:58:58.485Z,77.81
2022-12-11T11:01:28.980Z,78.50
2022-12-11T11:04:15.892Z,78.29
2022-12-11T11:06:44.021Z,78.77
2022-12-11T11:09:35.561Z,78.01
2022-12-11T11:12:07.811Z,78.38
2022-12-11T11:14:35.674Z,78.92
2022-12-11T11:17:03.392Z,94.19
2022-12-11T11:19:34.346Z,95.97
2022-12-11T11:22:08.822Z,75.52
2022-12-11T11:24:46.708Z,73.74
2022-12-11T11:27:32.450Z,74.60
2022-12-11T11:30:11.014Z,75.43
2022-12-11T11:32:39.944Z,75.46
2022-12-11T11:35:11.520Z,76.49
2022-12-11T11:37:45.549Z,77.35
2022-12-11T11:40:22.255Z,77.01
2022-12-11T11:43:07.790Z,77.90
2022-12-11T11:45:53.070Z,76.78
2022-12-11T11:48:59.115Z,77.70
2022-12-11T11:51:36.296Z,77.39
2022-12-11T11:54:27.778Z,77.93
2022-12-11T11:56:57.373Z,77.73
2022-12-11T11:59:34.711Z,77.87
2022-12-11T12:02:02.667Z,77.25
2022-12-11T12:04:35.148Z,77.89
2022-12-11T12:07:21.064Z,77.43
2022-12-11T12:10:35.005Z,78.54
2022-12-11T12:13:48.206Z,78.06
2022-12-11T12:16:53.384Z,78.54
2022-12-11T12:19:47.450Z,77.56
2022-12-11T12:22:53.947Z,77.95
2022-12-11T12:25:30.415Z,77.70
2022-12-11T12:28:31.207Z,78.34
2022-12-11T12:31:24.816Z,79.04
2022-12-11T12:34:14.269Z,78.96
2022-12-11T12:36:59.503Z,78.32
2022-12-11T12:39:36.134Z,78.00
2022-12-11T12:42:09.324Z,77.95
2022-12-11T12:44:59.518Z,77.53
2022-12-11T12:47:30.371Z,77.82
2022-12-11T12:50:00.170Z,77.59
2022-12-11T12:52:40.893Z,78.01
2022-12-11T12:55:27.214Z,77.62
2022-12-11T12:58:06.098Z,76.97
2022-12-11T13:00:43.113Z,77.47
2022-12-11T13:03:23.118Z,76.57
2022-12-11T13:06:04.293Z,76.12
2022-12-11T13:08:50.312Z,76.47
2022-12-11T13:11:20.247Z,76.30
2022-12-11T13:14:01.081Z,75.47
2022-12-11T13:16:40.481Z,75.04
2022-12-11T13:19:24.066Z,74.81
2022-12-11T13:22:23.318Z,74.74
2022-12-11T13:24:53.629Z,74.39
2022-12-11T13:27:41.768Z,75.16
2022-12-11T13:30:15.315Z,74.61
2022-12-11T13:32:58.904Z,74.88
2022-12-11T13:35:26.657Z,75.09
2022-12-11T13:37:57.451Z,74.62
2022-12-11T13:40:28.961Z,75.08
2022-12-11T13:43:01.261Z,74.99
2022-12-11T13:45:49.990Z,74.82
2022-12-11T13:48:29.902Z,74.77
2022-12-11T13:50:59.390Z,74.92
2022-12-11T13:53:27.675Z,75.02
2022-12-11T13:55:58.187Z,75.26
2022-12-11T13:58:26.544Z,75.55
2022-12-11T14:01:15.521Z,75.80
2022-12-11T14:03:55.542Z,76.34
2022-12-11T14:06:24.234Z,76.18
2022-12-11T14:08:55.339Z,75.91
2022-12-11T14:11:28.012Z,75.64
2022-12-11T14:14:01.676Z,75.42
2022-12-11T14:16:30.096Z,75.20
2022-12-11T14:19:05.167Z,75.21
2022-12-11T14:21:32.663Z,75.89
2022-12-11T14:24:03.573Z,75.67
2022-12-11T14:26:34.304Z,75.41
2022-12-11T14:29:03.003Z,75.24
2022-12-11T14:31:43.811Z,74.74
2022-12-11T14:34:19.129Z,74.05
2022-12-11T14:36:49.493Z,74.90
2022-12-11T14:39:23.331Z,74.61
2022-12-11T14:42:13.761Z,74.82
2022-12-11T14:45:06.324Z,74.21
2022-12-11T14:47:43.431Z,74.00
2022-12-11T14:50:27.643Z,73.91
2022-12-11T14:53:00.421Z,73.82
2022-12-11T14:55:35.103Z,73.39
2022-12-11T14:58:33.993Z,73.10
2022-12-11T15:01:05.571Z,73.64
2022-12-11T15:03:34.374Z,73.51
2022-12-11T15:06:20.870Z,73.95
2022-12-11T15:08:48.259Z,73.87
2022-12-11T15:11:17.750Z,73.95
2022-12-11T15:13:56.195Z,74.07
2022-12-11T15:16:26.923Z,73.90
2022-12-11T15:18:56.180Z,73.42
2022-12-11T15:21:32.575Z,73.48
2022-12-11T15:24:02.868Z,73.90
2022-12-11T15:26:48.239Z,74.50
2022-12-11T15:29:28.133Z,74.60
2022-12-11T15:32:04.867Z,74.53
2022-12-11T15:34:43.039Z,73.70
2022-12-11T15:37:30.851Z,73.59
2022-12-11T15:40:00.327Z,72.75
2022-12-11T15:42:39.786Z,71.96
2022-12-11T15:45:15.116Z,71.91
2022-12-11T15:47:43.439Z,72.51
2022-12-11T15:50:28.105Z,72.02
2022-12-11T15:52:56.965Z,71.50
2022-12-11T15:55:27.373Z,71.65
2022-12-11T15:57:58.079Z,71.95
2022-12-11T16:00:28.185Z,72.36
2022-12-11T16:02:57.374Z,72.38
2022-12-11T16:05:25.944Z,72.13
2022-12-11T16:07:59.535Z,72.09
2022-12-11T16:10:27.601Z,72.98
2022-12-11T16:12:59.487Z,86.71
2022-12-11T16:15:27.710Z,73.30
2022-12-11T16:18:13.711Z,72.59
2022-12-11T16:20:42.611Z,72.66
2022-12-11T16:23:11.048Z,71.92
2022-12-11T16:25:40.094Z,71.66
2022-12-11T16:28:08.890Z,71.23
2022-12-11T16:30:37.805Z,71.68
2022-12-11T16:33:12.059Z,71.59
2022-12-11T16:35:42.912Z,72.06
2022-12-11T16:38:11.472Z,71.87
2022-12-11T16:40:39.365Z,72.23
2022-12-11T16:43:07.069Z,71.97
2022-12-11T16:45:34.591Z,72.18
2022-12-11T16:48:05.448Z,72.54
2022-12-11T16:50:33.294Z,72.57
2022-12-11T16:53:00.802Z,72.66
2022-12-11T16:55:28.305Z,72.61
2022-12-11T16:57:56.069Z,72.70
2022-12-11T17:00:23.974Z,72.85
2022-12-11T17:02:51.533Z,72.46
2022-12-11T17:05:19.602Z,72.78
2022-12-11T17:07:47.053Z,72.94
2022-12-11T17:10:14.619Z,72.75
2022-12-11T17:12:42.326Z,72.95
2022-12-11T17:15:10.577Z,72.89
2022-12-11T17:17:38.400Z,72.63
2022-12-11T17:20:06.775Z,72.88
2022-12-11T17:22:35.509Z,72.83
2022-12-11T17:25:04.519Z,72.88
2022-12-11T17:27:32.206Z,73.31
2022-12-11T17:29:59.681Z,72.60
2022-12-11T17:32:27.115Z,73.08
2022-12-11T17:34:54.908Z,73.08
2022-12-11T17:37:22.379Z,72.31
2022-12-11T17:39:49.904Z,72.20
2022-12-11T17:42:17.604Z,72.89
2022-12-11T17:44:45.657Z,72.31
2022-12-11T17:47:13.333Z,72.38
2022-12-11T17:49:41.352Z,73.06
2022-12-11T17:52:08.826Z,72.94
2022-12-11T17:54:36.507Z,73.54
2022-12-11T17:57:04.374Z,72.85
2022-12-11T17:59:32.271Z,73.23
2022-12-11T18:01:59.769Z,72.93
2022-12-11T18:04:27.526Z,73.16
2022-12-11T18:06:55.136Z,73.50
2022-12-11T18:09:22.637Z,72.80
2022-12-11T18:11:51.271Z,72.58
2022-12-11T18:14:18.748Z,72.68
2022-12-11T18:16:46.383Z,72.39
2022-12-11T18:19:14.664Z,71.83
2022-12-11T18:21:45.728Z,71.99
2022-12-11T18:24:13.272Z,71.91
2022-12-11T18:26:42.992Z,72.22
2022-12-11T18:29:10.595Z,72.00
2022-12-11T18:31:42.640Z,71.70
2022-12-11T18:34:11.171Z,71.98
2022-12-11T18:36:40.758Z,72.19
2022-12-11T18:39:08.326Z,72.27
2022-12-11T18:41:36.163Z,72.48
2022-12-11T18:44:09.325Z,72.56
2022-12-11T18:46:39.599Z,72.86
2022-12-11T18:49:07.181Z,73.31
2022-12-11T18:51:34.650Z,73.17
2022-12-11T18:54:02.438Z,73.11
2022-12-11T18:56:29.844Z,73.72
2022-12-11T18:58:57.262Z,73.22
2022-12-11T19:01:28.918Z,73.16
2022-12-11T19:04:04.188Z,73.17
2022-12-11T19:06:35.769Z,73.26
2022-12-11T19:09:05.810Z,72.96
2022-12-11T19:11:35.139Z,73.15
2022-12-11T19:14:05.049Z,73.19
2022-12-11T19:16:35.046Z,73.14
2022-12-11T19:19:06.453Z,72.90
2022-12-11T19:21:35.534Z,73.53
2022-12-11T19:24:04.539Z,73.64
2022-12-11T19:26:32.123Z,73.46
2022-12-11T19:29:00.409Z,73.57
2022-12-11T19:31:31.001Z,73.09
2022-12-11T19:33:59.303Z,73.62
2022-12-11T19:36:29.469Z,73.79
2022-12-11T19:39:01.411Z,74.43
2022-12-11T19:41:30.219Z,73.69
2022-12-11T19:44:00.186Z,72.75
2022-12-11T19:46:29.141Z,73.01
2022-12-11T19:48:58.688Z,73.12
2022-12-11T19:51:33.875Z,73.00
2022-12-11T19:54:04.987Z,72.72
2022-12-11T19:56:34.383Z,72.74
2022-12-11T19:59:03.479Z,72.80
2022-12-11T20:01:32.788Z,72.56
2022-12-11T20:04:04.378Z,72.30
2022-12-11T20:06:34.133Z,71.59
2022-12-11T20:09:02.717Z,71.58
2022-12-11T20:11:31.827Z,72.00
2022-12-11T20:13:59.474Z,70.47
2022-12-11T20:16:46.191Z,71.09
2022-12-11T20:19:15.035Z,71.55
2022-12-11T20:21:42.862Z,71.46
2022-12-11T20:24:10.690Z,71.83
2022-12-11T20:26:38.438Z,72.14
2022-12-11T20:29:08.300Z,72.23
2022-12-11T20:31:36.854Z,72.16
2022-12-11T20:34:05.480Z,72.12
2022-12-11T20:36:33.416Z,72.67
2022-12-11T20:39:01.124Z,72.43
2022-12-11T20:41:29.445Z,72.34
2022-12-11T20:43:57.281Z,72.54
2022-12-11T20:46:26.398Z,72.47
2022-12-11T20:48:56.317Z,72.41
2022-12-11T20:51:26.309Z,72.62
2022-12-11T20:53:59.349Z,72.23
2022-12-11T20:56:29.767Z,72.22
2022-12-11T20:58:58.723Z,72.27
2022-12-11T21:01:28.232Z,72.53
2022-12-11T21:03:56.488Z,72.91
2022-12-11T21:06:26.860Z,73.27
2022-12-11T21:08:54.468Z,73.75
2022-12-11T21:11:22.379Z,73.41
2022-12-11T21:13:51.472Z,73.68
2022-12-11T21:16:20.126Z,74.62
2022-12-11T21:18:48.569Z,74.83
2022-12-11T21:21:17.077Z,75.11
2022-12-11T21:23:45.255Z,75.34
2022-12-11T21:26:13.764Z,75.84
2022-12-11T21:28:41.521Z,76.07
2022-12-11T21:31:12.817Z,76.07
2022-12-11T21:33:40.763Z,76.68
2022-12-11T21:36:11.155Z,76.75
2022-12-11T21:38:41.826Z,76.19
2022-12-11T21:41:13.750Z,76.74
2022-12-11T21:44:00.450Z,76.72
2022-12-11T21:46:30.333Z,76.59
2022-12-11T21:48:57.898Z,76.15
2022-12-11T21:51:34.075Z,75.86
2022-12-11T21:54:06.299Z,75.66
2022-12-11T21:56:33.811Z,75.45
2022-12-11T21:59:04.258Z,75.49
2022-12-11T22:01:35.343Z,75.09
2022-12-11T22:04:05.380Z,75.25
2022-12-11T22:06:33.361Z,75.13
2022-12-11T22:09:01.436Z,74.90
2022-12-11T22:11:31.742Z,75.20
2022-12-11T22:13:59.779Z,75.04
2022-12-11T22:16:27.690Z,75.07
2022-12-11T22:18:55.438Z,74.99
2022-12-11T22:21:22.963Z,75.45
2022-12-11T22:23:50.576Z,75.15
2022-12-11T22:26:21.382Z,74.77
2022-12-11T22:28:49.534Z,74.25
2022-12-11T22:31:20.630Z,74.56
2022-12-11T22:33:50.127Z,74.58
2022-12-11T22:36:18.884Z,74.58
2022-12-11T22:38:47.357Z,74.21
2022-12-11T22:41:27.054Z,74.61
2022-12-11T22:43:55.131Z,74.47
2022-12-11T22:46:26.056Z,74.19
2022-12-11T22:48:53.815Z,74.11
2022-12-11T22:51:22.929Z,73.81
2022-12-11T22:53:51.098Z,73.37
2022-12-11T22:56:18.537Z,72.99
2022-12-11T22:58:46.503Z,72.75
2022-12-11T23:01:18.005Z,72.89
2022-12-11T23:03:45.982Z,72.42
2022-12-11T23:06:17.168Z,71.98
2022-12-11T23:08:44.934Z,71.93
2022-12-11T23:11:21.677Z,72.65
2022-12-11T23:13:49.611Z,72.70
2022-12-11T23:16:17.274Z,72.45
2022-12-11T23:18:44.853Z,72.96
2022-12-11T23:21:12.909Z,72.37
2022-12-11T23:23:41.326Z,72.42
2022-12-11T23:26:11.178Z,71.98
2022-12-11T23:28:39.260Z,72.52
2022-12-11T23:31:08.182Z,72.24
2022-12-11T23:33:35.843Z,71.53
2022-12-11T23:36:04.758Z,71.67
2022-12-11T23:38:32.838Z,71.63
2022-12-11T23:41:02.141Z,71.94
2022-12-11T23:43:29.931Z,71.72
2022-12-11T23:45:57.862Z,71.66
2022-12-11T23:48:25.433Z,72.01
2022-12-11T23:50:59.518Z,72.22
2022-12-11T23:53:28.232Z,72.40
2022-12-11T23:55:56.826Z,72.45
2022-12-11T23:58:24.253Z,72.51
